sensor_id;sensor_type;location;lat;lon;timestamp;P1;durP1;ratioP1;P2;durP2;ratioP2
36597;SDS011;22607;49.550;11.940;2023-08-24T00:00:49;8.10;;;2.88;;
36597;SDS011;22607;49.550;11.940;2023-08-24T00:03:16;9.63;;;3.13;;
36597;SDS011;22607;49.550;11.940;2023-08-24T00:05:43;8.38;;;2.90;;
36597;SDS011;22607;49.550;11.940;2023-08-24T00:08:10;7.80;;;2.72;;
36597;SDS011;22607;49.550;11.940;2023-08-24T00:10:38;8.38;;;3.45;;
36597;SDS011;22607;49.550;11.940;2023-08-24T00:13:04;6.95;;;2.83;;
36597;SDS011;22607;49.550;11.940;2023-08-24T00:15:32;8.23;;;2.58;;
36597;SDS011;22607;49.550;11.940;2023-08-24T00:18:00;8.20;;;3.08;;
36597;SDS011;22607;49.550;11.940;2023-08-24T00:20:26;7.53;;;3.15;;
36597;SDS011;22607;49.550;11.940;2023-08-24T00:22:53;8.90;;;2.88;;
36597;SDS011;22607;49.550;11.940;2023-08-24T00:25:20;7.75;;;2.60;;
36597;SDS011;22607;49.550;11.940;2023-08-24T00:27:46;7.72;;;2.40;;
36597;SDS011;22607;49.550;11.940;2023-08-24T00:30:13;7.85;;;2.83;;
36597;SDS011;22607;49.550;11.940;2023-08-24T00:32:42;7.25;;;2.40;;
36597;SDS011;22607;49.550;11.940;2023-08-24T00:35:09;7.60;;;2.53;;
36597;SDS011;22607;49.550;11.940;2023-08-24T00:37:37;6.07;;;2.40;;
36597;SDS011;22607;49.550;11.940;2023-08-24T00:40:05;7.85;;;2.50;;
36597;SDS011;22607;49.550;11.940;2023-08-24T00:45:07;6.78;;;2.47;;
36597;SDS011;22607;49.550;11.940;2023-08-24T00:47:46;8.15;;;2.83;;
36597;SDS011;22607;49.550;11.940;2023-08-24T00:50:15;6.25;;;2.55;;
36597;SDS011;22607;49.550;11.940;2023-08-24T00:52:43;7.00;;;2.58;;
36597;SDS011;22607;49.550;11.940;2023-08-24T00:55:10;8.27;;;2.45;;
36597;SDS011;22607;49.550;11.940;2023-08-24T00:57:37;7.82;;;2.38;;
36597;SDS011;22607;49.550;11.940;2023-08-24T01:00:06;6.70;;;2.40;;
36597;SDS011;22607;49.550;11.940;2023-08-24T01:02:37;7.53;;;2.58;;
36597;SDS011;22607;49.550;11.940;2023-08-24T01:05:04;7.53;;;2.38;;
36597;SDS011;22607;49.550;11.940;2023-08-24T01:07:33;7.07;;;2.65;;
36597;SDS011;22607;49.550;11.940;2023-08-24T01:10:02;6.80;;;2.60;;
36597;SDS011;22607;49.550;11.940;2023-08-24T01:15:47;9.88;;;2.95;;
36597;SDS011;22607;49.550;11.940;2023-08-24T01:18:21;6.88;;;2.75;;
36597;SDS011;22607;49.550;11.940;2023-08-24T01:20:49;7.45;;;2.78;;
36597;SDS011;22607;49.550;11.940;2023-08-24T01:26:20;8.95;;;2.88;;
36597;SDS011;22607;49.550;11.940;2023-08-24T01:28:47;9.32;;;2.70;;
36597;SDS011;22607;49.550;11.940;2023-08-24T01:31:14;7.93;;;3.10;;
36597;SDS011;22607;49.550;11.940;2023-08-24T01:33:45;8.55;;;2.78;;
36597;SDS011;22607;49.550;11.940;2023-08-24T01:36:12;7.28;;;2.97;;
36597;SDS011;22607;49.550;11.940;2023-08-24T01:38:41;7.50;;;2.80;;
36597;SDS011;22607;49.550;11.940;2023-08-24T01:43:48;9.70;;;3.10;;
36597;SDS011;22607;49.550;11.940;2023-08-24T01:46:20;7.32;;;2.83;;
36597;SDS011;22607;49.550;11.940;2023-08-24T01:48:48;7.38;;;3.10;;
36597;SDS011;22607;49.550;11.940;2023-08-24T01:51:15;7.70;;;2.55;;
36597;SDS011;22607;49.550;11.940;2023-08-24T01:53:42;7.45;;;2.55;;
36597;SDS011;22607;49.550;11.940;2023-08-24T01:56:11;8.18;;;2.70;;
36597;SDS011;22607;49.550;11.940;2023-08-24T01:58:38;8.50;;;2.80;;
36597;SDS011;22607;49.550;11.940;2023-08-24T02:01:05;7.07;;;2.78;;
36597;SDS011;22607;49.550;11.940;2023-08-24T02:03:33;6.57;;;2.60;;
36597;SDS011;22607;49.550;11.940;2023-08-24T02:06:00;8.07;;;2.72;;
36597;SDS011;22607;49.550;11.940;2023-08-24T02:08:27;7.82;;;2.50;;
36597;SDS011;22607;49.550;11.940;2023-08-24T02:10:53;10.23;;;2.95;;
36597;SDS011;22607;49.550;11.940;2023-08-24T02:13:20;7.90;;;2.70;;
36597;SDS011;22607;49.550;11.940;2023-08-24T02:15:47;8.20;;;2.75;;
36597;SDS011;22607;49.550;11.940;2023-08-24T02:18:14;7.13;;;3.00;;
36597;SDS011;22607;49.550;11.940;2023-08-24T02:20:41;7.95;;;2.95;;
36597;SDS011;22607;49.550;11.940;2023-08-24T02:23:07;8.38;;;3.05;;
36597;SDS011;22607;49.550;11.940;2023-08-24T02:25:35;7.97;;;2.90;;
36597;SDS011;22607;49.550;11.940;2023-08-24T02:28:08;8.32;;;3.00;;
36597;SDS011;22607;49.550;11.940;2023-08-24T02:30:36;6.65;;;2.80;;
36597;SDS011;22607;49.550;11.940;2023-08-24T02:33:04;7.38;;;2.70;;
36597;SDS011;22607;49.550;11.940;2023-08-24T02:35:31;8.52;;;3.40;;
36597;SDS011;22607;49.550;11.940;2023-08-24T02:37:59;7.40;;;3.00;;
36597;SDS011;22607;49.550;11.940;2023-08-24T02:40:25;7.25;;;2.88;;
36597;SDS011;22607;49.550;11.940;2023-08-24T02:42:52;6.72;;;2.90;;
36597;SDS011;22607;49.550;11.940;2023-08-24T02:45:18;7.47;;;2.88;;
36597;SDS011;22607;49.550;11.940;2023-08-24T02:47:45;7.07;;;2.90;;
36597;SDS011;22607;49.550;11.940;2023-08-24T02:50:12;7.40;;;2.70;;
36597;SDS011;22607;49.550;11.940;2023-08-24T02:52:38;9.05;;;3.08;;
36597;SDS011;22607;49.550;11.940;2023-08-24T02:55:05;12.57;;;3.10;;
36597;SDS011;22607;49.550;11.940;2023-08-24T02:57:33;9.90;;;3.28;;
36597;SDS011;22607;49.550;11.940;2023-08-24T03:00:01;9.40;;;2.80;;
36597;SDS011;22607;49.550;11.940;2023-08-24T03:02:29;8.75;;;3.15;;
36597;SDS011;22607;49.550;11.940;2023-08-24T03:04:57;9.32;;;3.10;;
36597;SDS011;22607;49.550;11.940;2023-08-24T03:07:24;8.00;;;2.83;;
36597;SDS011;22607;49.550;11.940;2023-08-24T03:09:50;7.75;;;2.70;;
36597;SDS011;22607;49.550;11.940;2023-08-24T03:12:17;7.30;;;2.90;;
36597;SDS011;22607;49.550;11.940;2023-08-24T03:14:43;8.48;;;3.10;;
36597;SDS011;22607;49.550;11.940;2023-08-24T03:17:10;8.43;;;3.40;;
36597;SDS011;22607;49.550;11.940;2023-08-24T03:19:36;8.70;;;3.15;;
36597;SDS011;22607;49.550;11.940;2023-08-24T03:22:03;7.25;;;3.10;;
36597;SDS011;22607;49.550;11.940;2023-08-24T03:24:30;7.70;;;3.00;;
36597;SDS011;22607;49.550;11.940;2023-08-24T03:26:56;8.13;;;3.35;;
36597;SDS011;22607;49.550;11.940;2023-08-24T03:29:23;8.95;;;3.65;;
36597;SDS011;22607;49.550;11.940;2023-08-24T03:34:20;8.80;;;3.23;;
36597;SDS011;22607;49.550;11.940;2023-08-24T03:36:47;8.60;;;3.20;;
36597;SDS011;22607;49.550;11.940;2023-08-24T03:39:16;8.55;;;3.20;;
36597;SDS011;22607;49.550;11.940;2023-08-24T03:41:42;8.27;;;3.20;;
36597;SDS011;22607;49.550;11.940;2023-08-24T03:44:09;8.40;;;3.60;;
36597;SDS011;22607;49.550;11.940;2023-08-24T03:46:36;9.20;;;3.28;;
36597;SDS011;22607;49.550;11.940;2023-08-24T03:49:02;6.70;;;2.80;;
36597;SDS011;22607;49.550;11.940;2023-08-24T03:51:29;8.20;;;2.95;;
36597;SDS011;22607;49.550;11.940;2023-08-24T03:54:04;7.97;;;3.03;;
36597;SDS011;22607;49.550;11.940;2023-08-24T03:56:31;7.50;;;3.30;;
36597;SDS011;22607;49.550;11.940;2023-08-24T03:58:58;8.65;;;3.58;;
36597;SDS011;22607;49.550;11.940;2023-08-24T04:01:25;8.07;;;3.40;;
36597;SDS011;22607;49.550;11.940;2023-08-24T04:03:52;7.57;;;3.20;;
36597;SDS011;22607;49.550;11.940;2023-08-24T04:06:19;7.53;;;3.00;;
36597;SDS011;22607;49.550;11.940;2023-08-24T04:08:46;7.85;;;3.13;;
36597;SDS011;22607;49.550;11.940;2023-08-24T04:11:13;8.80;;;3.75;;
36597;SDS011;22607;49.550;11.940;2023-08-24T04:13:40;7.70;;;3.00;;
36597;SDS011;22607;49.550;11.940;2023-08-24T04:16:07;6.90;;;2.80;;
36597;SDS011;22607;49.550;11.940;2023-08-24T04:18:33;7.15;;;3.00;;
36597;SDS011;22607;49.550;11.940;2023-08-24T04:21:00;7.57;;;3.03;;
36597;SDS011;22607;49.550;11.940;2023-08-24T04:23:27;7.90;;;3.20;;
36597;SDS011;22607;49.550;11.940;2023-08-24T04:25:54;7.53;;;2.92;;
36597;SDS011;22607;49.550;11.940;2023-08-24T04:28:21;7.00;;;3.28;;
36597;SDS011;22607;49.550;11.940;2023-08-24T04:30:51;8.82;;;3.47;;
36597;SDS011;22607;49.550;11.940;2023-08-24T04:33:18;7.53;;;3.20;;
36597;SDS011;22607;49.550;11.940;2023-08-24T04:35:48;8.07;;;3.22;;
36597;SDS011;22607;49.550;11.940;2023-08-24T04:38:16;8.43;;;3.78;;
36597;SDS011;22607;49.550;11.940;2023-08-24T04:40:50;7.35;;;3.33;;
36597;SDS011;22607;49.550;11.940;2023-08-24T04:43:18;8.32;;;3.05;;
36597;SDS011;22607;49.550;11.940;2023-08-24T04:45:46;7.80;;;3.70;;
36597;SDS011;22607;49.550;11.940;2023-08-24T04:48:19;7.95;;;3.78;;
36597;SDS011;22607;49.550;11.940;2023-08-24T04:50:50;6.97;;;3.10;;
36597;SDS011;22607;49.550;11.940;2023-08-24T04:53:18;8.18;;;3.60;;
36597;SDS011;22607;49.550;11.940;2023-08-24T04:55:45;9.60;;;3.70;;
36597;SDS011;22607;49.550;11.940;2023-08-24T04:58:13;8.50;;;3.40;;
36597;SDS011;22607;49.550;11.940;2023-08-24T05:00:39;8.35;;;3.58;;
36597;SDS011;22607;49.550;11.940;2023-08-24T05:03:07;8.15;;;3.30;;
36597;SDS011;22607;49.550;11.940;2023-08-24T05:05:36;8.55;;;3.50;;
36597;SDS011;22607;49.550;11.940;2023-08-24T05:08:04;7.63;;;3.42;;
36597;SDS011;22607;49.550;11.940;2023-08-24T05:10:39;7.85;;;3.47;;
36597;SDS011;22607;49.550;11.940;2023-08-24T05:13:06;9.32;;;3.65;;
36597;SDS011;22607;49.550;11.940;2023-08-24T05:15:33;8.88;;;4.10;;
36597;SDS011;22607;49.550;11.940;2023-08-24T05:17:59;9.43;;;3.92;;
36597;SDS011;22607;49.550;11.940;2023-08-24T05:20:27;10.18;;;3.95;;
36597;SDS011;22607;49.550;11.940;2023-08-24T05:22:54;7.32;;;3.30;;
36597;SDS011;22607;49.550;11.940;2023-08-24T05:25:21;7.40;;;3.28;;
36597;SDS011;22607;49.550;11.940;2023-08-24T05:27:49;8.07;;;3.33;;
36597;SDS011;22607;49.550;11.940;2023-08-24T05:30:16;8.02;;;3.40;;
36597;SDS011;22607;49.550;11.940;2023-08-24T05:32:43;8.00;;;3.45;;
36597;SDS011;22607;49.550;11.940;2023-08-24T05:35:10;8.23;;;3.15;;
36597;SDS011;22607;49.550;11.940;2023-08-24T05:37:37;7.38;;;3.05;;
36597;SDS011;22607;49.550;11.940;2023-08-24T05:40:04;7.93;;;3.33;;
36597;SDS011;22607;49.550;11.940;2023-08-24T05:42:31;7.97;;;3.63;;
36597;SDS011;22607;49.550;11.940;2023-08-24T05:44:58;7.45;;;3.40;;
36597;SDS011;22607;49.550;11.940;2023-08-24T05:47:24;9.75;;;4.45;;
36597;SDS011;22607;49.550;11.940;2023-08-24T05:49:51;8.90;;;3.60;;
36597;SDS011;22607;49.550;11.940;2023-08-24T05:52:18;7.00;;;3.22;;
36597;SDS011;22607;49.550;11.940;2023-08-24T05:54:45;8.50;;;3.13;;
36597;SDS011;22607;49.550;11.940;2023-08-24T05:57:12;7.90;;;3.60;;
36597;SDS011;22607;49.550;11.940;2023-08-24T05:59:38;8.95;;;3.50;;
36597;SDS011;22607;49.550;11.940;2023-08-24T06:02:05;8.68;;;3.72;;
36597;SDS011;22607;49.550;11.940;2023-08-24T06:04:32;9.27;;;3.58;;
36597;SDS011;22607;49.550;11.940;2023-08-24T06:06:58;7.70;;;3.63;;
36597;SDS011;22607;49.550;11.940;2023-08-24T06:09:26;9.32;;;3.72;;
36597;SDS011;22607;49.550;11.940;2023-08-24T06:11:52;10.23;;;3.97;;
36597;SDS011;22607;49.550;11.940;2023-08-24T06:14:21;6.88;;;3.25;;
36597;SDS011;22607;49.550;11.940;2023-08-24T06:16:47;7.30;;;3.65;;
36597;SDS011;22607;49.550;11.940;2023-08-24T06:19:15;8.35;;;3.90;;
36597;SDS011;22607;49.550;11.940;2023-08-24T06:21:41;17.48;;;4.80;;
36597;SDS011;22607;49.550;11.940;2023-08-24T06:24:08;11.45;;;4.72;;
36597;SDS011;22607;49.550;11.940;2023-08-24T06:26:35;8.30;;;4.30;;
36597;SDS011;22607;49.550;11.940;2023-08-24T06:29:01;8.43;;;4.13;;
36597;SDS011;22607;49.550;11.940;2023-08-24T06:31:28;8.38;;;4.28;;
36597;SDS011;22607;49.550;11.940;2023-08-24T06:33:57;8.98;;;4.57;;
36597;SDS011;22607;49.550;11.940;2023-08-24T06:36:24;8.73;;;4.25;;
36597;SDS011;22607;49.550;11.940;2023-08-24T06:38:50;8.00;;;3.80;;
36597;SDS011;22607;49.550;11.940;2023-08-24T06:41:19;9.88;;;4.20;;
36597;SDS011;22607;49.550;11.940;2023-08-24T06:43:46;11.77;;;4.25;;
36597;SDS011;22607;49.550;11.940;2023-08-24T06:46:13;8.93;;;4.00;;
36597;SDS011;22607;49.550;11.940;2023-08-24T06:48:40;8.40;;;3.63;;
36597;SDS011;22607;49.550;11.940;2023-08-24T06:51:09;8.25;;;3.67;;
36597;SDS011;22607;49.550;11.940;2023-08-24T06:53:36;8.25;;;4.00;;
36597;SDS011;22607;49.550;11.940;2023-08-24T06:56:02;8.82;;;3.80;;
36597;SDS011;22607;49.550;11.940;2023-08-24T06:58:30;7.28;;;3.42;;
36597;SDS011;22607;49.550;11.940;2023-08-24T07:00:56;7.80;;;3.58;;
36597;SDS011;22607;49.550;11.940;2023-08-24T07:03:23;8.20;;;3.65;;
36597;SDS011;22607;49.550;11.940;2023-08-24T07:05:50;8.35;;;3.53;;
36597;SDS011;22607;49.550;11.940;2023-08-24T07:08:17;7.82;;;3.38;;
36597;SDS011;22607;49.550;11.940;2023-08-24T07:10:44;8.90;;;3.92;;
36597;SDS011;22607;49.550;11.940;2023-08-24T07:13:11;8.75;;;3.90;;
36597;SDS011;22607;49.550;11.940;2023-08-24T07:15:39;8.00;;;3.78;;
36597;SDS011;22607;49.550;11.940;2023-08-24T07:18:06;9.40;;;3.70;;
36597;SDS011;22607;49.550;11.940;2023-08-24T07:20:34;7.72;;;3.58;;
36597;SDS011;22607;49.550;11.940;2023-08-24T07:23:01;7.82;;;3.60;;
36597;SDS011;22607;49.550;11.940;2023-08-24T07:25:27;8.02;;;3.60;;
36597;SDS011;22607;49.550;11.940;2023-08-24T07:27:54;8.43;;;3.45;;
36597;SDS011;22607;49.550;11.940;2023-08-24T07:30:31;8.60;;;3.13;;
36597;SDS011;22607;49.550;11.940;2023-08-24T07:33:00;8.20;;;3.50;;
36597;SDS011;22607;49.550;11.940;2023-08-24T07:35:27;7.32;;;3.22;;
36597;SDS011;22607;49.550;11.940;2023-08-24T07:37:54;8.30;;;3.20;;
36597;SDS011;22607;49.550;11.940;2023-08-24T07:40:22;7.72;;;3.28;;
36597;SDS011;22607;49.550;11.940;2023-08-24T07:42:50;7.70;;;3.30;;
36597;SDS011;22607;49.550;11.940;2023-08-24T07:45:19;9.18;;;3.03;;
36597;SDS011;22607;49.550;11.940;2023-08-24T07:47:48;8.88;;;3.40;;
36597;SDS011;22607;49.550;11.940;2023-08-24T07:50:15;8.07;;;3.20;;
36597;SDS011;22607;49.550;11.940;2023-08-24T07:52:42;9.27;;;3.58;;
36597;SDS011;22607;49.550;11.940;2023-08-24T07:55:09;7.13;;;3.35;;
36597;SDS011;22607;49.550;11.940;2023-08-24T07:57:36;8.35;;;3.22;;
36597;SDS011;22607;49.550;11.940;2023-08-24T08:00:04;7.90;;;3.47;;
36597;SDS011;22607;49.550;11.940;2023-08-24T08:05:04;7.55;;;2.88;;
36597;SDS011;22607;49.550;11.940;2023-08-24T08:07:33;7.63;;;2.90;;
36597;SDS011;22607;49.550;11.940;2023-08-24T08:10:06;9.82;;;3.30;;
36597;SDS011;22607;49.550;11.940;2023-08-24T08:12:33;7.20;;;2.78;;
36597;SDS011;22607;49.550;11.940;2023-08-24T08:15:00;7.82;;;3.30;;
36597;SDS011;22607;49.550;11.940;2023-08-24T08:17:28;8.82;;;3.67;;
36597;SDS011;22607;49.550;11.940;2023-08-24T08:19:56;8.43;;;3.58;;
36597;SDS011;22607;49.550;11.940;2023-08-24T08:22:24;7.45;;;3.10;;
36597;SDS011;22607;49.550;11.940;2023-08-24T08:24:54;7.20;;;3.22;;
36597;SDS011;22607;49.550;11.940;2023-08-24T08:27:22;9.05;;;3.40;;
36597;SDS011;22607;49.550;11.940;2023-08-24T08:29:49;7.97;;;3.05;;
36597;SDS011;22607;49.550;11.940;2023-08-24T08:32:34;7.03;;;2.90;;
36597;SDS011;22607;49.550;11.940;2023-08-24T08:35:01;7.47;;;3.00;;
36597;SDS011;22607;49.550;11.940;2023-08-24T08:37:30;7.43;;;2.92;;
36597;SDS011;22607;49.550;11.940;2023-08-24T08:39:58;7.72;;;3.20;;
36597;SDS011;22607;49.550;11.940;2023-08-24T08:42:25;7.00;;;3.15;;
36597;SDS011;22607;49.550;11.940;2023-08-24T08:44:51;9.60;;;3.58;;
36597;SDS011;22607;49.550;11.940;2023-08-24T08:47:20;7.50;;;3.05;;
36597;SDS011;22607;49.550;11.940;2023-08-24T08:49:49;7.68;;;3.28;;
36597;SDS011;22607;49.550;11.940;2023-08-24T08:52:17;11.77;;;3.47;;
36597;SDS011;22607;49.550;11.940;2023-08-24T08:54:44;7.45;;;2.95;;
36597;SDS011;22607;49.550;11.940;2023-08-24T08:57:12;9.57;;;3.42;;
36597;SDS011;22607;49.550;11.940;2023-08-24T08:59:40;6.85;;;3.05;;
36597;SDS011;22607;49.550;11.940;2023-08-24T09:02:07;6.68;;;2.80;;
36597;SDS011;22607;49.550;11.940;2023-08-24T09:04:41;7.32;;;3.15;;
36597;SDS011;22607;49.550;11.940;2023-08-24T09:07:13;8.43;;;3.42;;
36597;SDS011;22607;49.550;11.940;2023-08-24T09:09:40;7.55;;;3.00;;
36597;SDS011;22607;49.550;11.940;2023-08-24T09:12:06;7.95;;;3.10;;
36597;SDS011;22607;49.550;11.940;2023-08-24T09:14:33;9.95;;;3.10;;
36597;SDS011;22607;49.550;11.940;2023-08-24T09:17:00;7.90;;;2.92;;
36597;SDS011;22607;49.550;11.940;2023-08-24T09:19:28;8.00;;;3.05;;
36597;SDS011;22607;49.550;11.940;2023-08-24T09:21:56;10.57;;;3.40;;
36597;SDS011;22607;49.550;11.940;2023-08-24T09:24:31;7.63;;;2.92;;
36597;SDS011;22607;49.550;11.940;2023-08-24T09:26:58;8.23;;;3.10;;
36597;SDS011;22607;49.550;11.940;2023-08-24T09:29:25;10.20;;;3.30;;
36597;SDS011;22607;49.550;11.940;2023-08-24T09:31:52;7.70;;;3.00;;
36597;SDS011;22607;49.550;11.940;2023-08-24T09:34:19;7.63;;;3.30;;
36597;SDS011;22607;49.550;11.940;2023-08-24T09:36:47;9.18;;;3.20;;
36597;SDS011;22607;49.550;11.940;2023-08-24T09:39:16;7.78;;;2.78;;
36597;SDS011;22607;49.550;11.940;2023-08-24T09:41:44;9.40;;;3.55;;
36597;SDS011;22607;49.550;11.940;2023-08-24T09:44:13;7.78;;;2.90;;
36597;SDS011;22607;49.550;11.940;2023-08-24T09:46:40;7.60;;;2.70;;
36597;SDS011;22607;49.550;11.940;2023-08-24T09:49:10;7.03;;;2.60;;
36597;SDS011;22607;49.550;11.940;2023-08-24T09:51:38;8.13;;;3.00;;
36597;SDS011;22607;49.550;11.940;2023-08-24T09:54:07;8.63;;;3.35;;
36597;SDS011;22607;49.550;11.940;2023-08-24T09:56:36;7.45;;;2.85;;
36597;SDS011;22607;49.550;11.940;2023-08-24T10:01:36;8.68;;;3.08;;
36597;SDS011;22607;49.550;11.940;2023-08-24T10:04:05;7.60;;;2.60;;
36597;SDS011;22607;49.550;11.940;2023-08-24T10:06:32;8.15;;;2.80;;
36597;SDS011;22607;49.550;11.940;2023-08-24T10:09:04;6.78;;;2.40;;
36597;SDS011;22607;49.550;11.940;2023-08-24T10:11:40;7.28;;;2.50;;
36597;SDS011;22607;49.550;11.940;2023-08-24T10:14:13;9.15;;;2.90;;
36597;SDS011;22607;49.550;11.940;2023-08-24T10:16:44;7.28;;;2.67;;
36597;SDS011;22607;49.550;11.940;2023-08-24T10:19:13;6.57;;;2.20;;
36597;SDS011;22607;49.550;11.940;2023-08-24T10:21:40;6.28;;;2.00;;
36597;SDS011;22607;49.550;11.940;2023-08-24T10:24:08;7.50;;;2.10;;
36597;SDS011;22607;49.550;11.940;2023-08-24T10:26:37;6.55;;;2.20;;
36597;SDS011;22607;49.550;11.940;2023-08-24T10:29:06;7.38;;;2.22;;
36597;SDS011;22607;49.550;11.940;2023-08-24T10:31:33;7.63;;;2.50;;
36597;SDS011;22607;49.550;11.940;2023-08-24T10:34:00;8.52;;;2.40;;
36597;SDS011;22607;49.550;11.940;2023-08-24T10:36:28;7.05;;;2.40;;
36597;SDS011;22607;49.550;11.940;2023-08-24T10:38:56;7.90;;;2.45;;
36597;SDS011;22607;49.550;11.940;2023-08-24T10:41:26;6.60;;;2.40;;
36597;SDS011;22607;49.550;11.940;2023-08-24T10:44:03;7.13;;;2.70;;
36597;SDS011;22607;49.550;11.940;2023-08-24T10:46:34;7.43;;;2.50;;
36597;SDS011;22607;49.550;11.940;2023-08-24T10:49:03;5.82;;;2.42;;
36597;SDS011;22607;49.550;11.940;2023-08-24T10:51:30;7.95;;;2.97;;
36597;SDS011;22607;49.550;11.940;2023-08-24T10:53:58;6.13;;;2.47;;
36597;SDS011;22607;49.550;11.940;2023-08-24T10:56:35;7.03;;;2.42;;
36597;SDS011;22607;49.550;11.940;2023-08-24T10:59:16;6.67;;;2.63;;
36597;SDS011;22607;49.550;11.940;2023-08-24T11:01:54;7.20;;;2.50;;
36597;SDS011;22607;49.550;11.940;2023-08-24T11:04:21;7.88;;;3.13;;
36597;SDS011;22607;49.550;11.940;2023-08-24T11:06:54;6.88;;;2.60;;
36597;SDS011;22607;49.550;11.940;2023-08-24T11:09:23;9.13;;;2.60;;
36597;SDS011;22607;49.550;11.940;2023-08-24T11:11:59;7.70;;;2.60;;
36597;SDS011;22607;49.550;11.940;2023-08-24T11:14:29;8.13;;;2.67;;
36597;SDS011;22607;49.550;11.940;2023-08-24T11:16:58;7.88;;;2.50;;
36597;SDS011;22607;49.550;11.940;2023-08-24T11:19:26;7.35;;;2.53;;
36597;SDS011;22607;49.550;11.940;2023-08-24T11:21:53;7.03;;;2.67;;
36597;SDS011;22607;49.550;11.940;2023-08-24T11:24:20;6.40;;;2.60;;
36597;SDS011;22607;49.550;11.940;2023-08-24T11:26:49;7.38;;;2.55;;
36597;SDS011;22607;49.550;11.940;2023-08-24T11:29:16;11.68;;;3.00;;
36597;SDS011;22607;49.550;11.940;2023-08-24T11:31:44;7.15;;;2.47;;
36597;SDS011;22607;49.550;11.940;2023-08-24T11:34:14;8.25;;;3.13;;
36597;SDS011;22607;49.550;11.940;2023-08-24T11:36:46;6.53;;;2.60;;
36597;SDS011;22607;49.550;11.940;2023-08-24T11:39:15;7.75;;;2.83;;
36597;SDS011;22607;49.550;11.940;2023-08-24T11:41:44;9.80;;;3.25;;
36597;SDS011;22607;49.550;11.940;2023-08-24T11:44:11;7.53;;;2.75;;
36597;SDS011;22607;49.550;11.940;2023-08-24T11:46:55;7.30;;;2.60;;
36597;SDS011;22607;49.550;11.940;2023-08-24T11:49:23;9.68;;;3.10;;
36597;SDS011;22607;49.550;11.940;2023-08-24T11:51:50;7.20;;;2.70;;
36597;SDS011;22607;49.550;11.940;2023-08-24T11:54:20;9.18;;;2.63;;
36597;SDS011;22607;49.550;11.940;2023-08-24T11:56:47;10.15;;;3.28;;
36597;SDS011;22607;49.550;11.940;2023-08-24T11:59:16;7.32;;;2.75;;
36597;SDS011;22607;49.550;11.940;2023-08-24T12:01:43;6.85;;;2.65;;
36597;SDS011;22607;49.550;11.940;2023-08-24T12:04:13;10.23;;;2.90;;
36597;SDS011;22607;49.550;11.940;2023-08-24T12:06:40;7.15;;;2.88;;
36597;SDS011;22607;49.550;11.940;2023-08-24T12:09:06;8.05;;;3.35;;
36597;SDS011;22607;49.550;11.940;2023-08-24T12:11:37;11.55;;;3.22;;
36597;SDS011;22607;49.550;11.940;2023-08-24T12:14:05;6.82;;;2.67;;
36597;SDS011;22607;49.550;11.940;2023-08-24T12:16:37;7.57;;;2.85;;
36597;SDS011;22607;49.550;11.940;2023-08-24T12:19:06;7.85;;;2.90;;
36597;SDS011;22607;49.550;11.940;2023-08-24T12:21:33;7.70;;;2.90;;
36597;SDS011;22607;49.550;11.940;2023-08-24T12:24:00;7.45;;;2.60;;
36597;SDS011;22607;49.550;11.940;2023-08-24T12:26:39;7.68;;;2.63;;
36597;SDS011;22607;49.550;11.940;2023-08-24T12:29:07;6.93;;;2.53;;
36597;SDS011;22607;49.550;11.940;2023-08-24T12:31:35;8.13;;;2.90;;
36597;SDS011;22607;49.550;11.940;2023-08-24T12:34:04;8.27;;;2.70;;
36597;SDS011;22607;49.550;11.940;2023-08-24T12:36:32;8.52;;;2.70;;
36597;SDS011;22607;49.550;11.940;2023-08-24T12:39:02;7.75;;;2.90;;
36597;SDS011;22607;49.550;11.940;2023-08-24T12:41:32;9.00;;;3.08;;
36597;SDS011;22607;49.550;11.940;2023-08-24T12:44:00;7.95;;;3.00;;
36597;SDS011;22607;49.550;11.940;2023-08-24T12:46:35;8.57;;;2.90;;
36597;SDS011;22607;49.550;11.940;2023-08-24T12:49:02;7.97;;;3.10;;
36597;SDS011;22607;49.550;11.940;2023-08-24T12:51:29;8.68;;;3.03;;
36597;SDS011;22607;49.550;11.940;2023-08-24T12:53:55;8.43;;;3.22;;
36597;SDS011;22607;49.550;11.940;2023-08-24T12:56:22;7.95;;;3.03;;
36597;SDS011;22607;49.550;11.940;2023-08-24T12:58:49;8.73;;;2.80;;
36597;SDS011;22607;49.550;11.940;2023-08-24T13:01:15;7.93;;;3.20;;
36597;SDS011;22607;49.550;11.940;2023-08-24T13:03:42;9.27;;;3.20;;
36597;SDS011;22607;49.550;11.940;2023-08-24T13:06:09;10.55;;;4.18;;
36597;SDS011;22607;49.550;11.940;2023-08-24T13:08:49;8.20;;;2.80;;
36597;SDS011;22607;49.550;11.940;2023-08-24T13:11:16;10.95;;;3.17;;
36597;SDS011;22607;49.550;11.940;2023-08-24T13:13:42;10.25;;;3.45;;
36597;SDS011;22607;49.550;11.940;2023-08-24T13:16:09;9.50;;;3.03;;
36597;SDS011;22607;49.550;11.940;2023-08-24T13:18:36;8.18;;;3.00;;
36597;SDS011;22607;49.550;11.940;2023-08-24T13:21:02;10.18;;;3.42;;
36597;SDS011;22607;49.550;11.940;2023-08-24T13:23:29;8.15;;;3.38;;
36597;SDS011;22607;49.550;11.940;2023-08-24T13:25:59;8.18;;;3.08;;
36597;SDS011;22607;49.550;11.940;2023-08-24T13:28:26;8.48;;;2.90;;
36597;SDS011;22607;49.550;11.940;2023-08-24T13:30:54;8.98;;;2.90;;
36597;SDS011;22607;49.550;11.940;2023-08-24T13:33:20;8.35;;;3.05;;
36597;SDS011;22607;49.550;11.940;2023-08-24T13:35:47;8.65;;;3.20;;
36597;SDS011;22607;49.550;11.940;2023-08-24T13:38:14;6.88;;;2.70;;
36597;SDS011;22607;49.550;11.940;2023-08-24T13:40:40;8.52;;;3.47;;
36597;SDS011;22607;49.550;11.940;2023-08-24T13:43:07;7.88;;;3.00;;
36597;SDS011;22607;49.550;11.940;2023-08-24T13:45:33;8.23;;;3.40;;
36597;SDS011;22607;49.550;11.940;2023-08-24T13:48:01;8.70;;;3.03;;
36597;SDS011;22607;49.550;11.940;2023-08-24T13:50:28;8.57;;;3.00;;
36597;SDS011;22607;49.550;11.940;2023-08-24T13:52:55;7.88;;;2.90;;
36597;SDS011;22607;49.550;11.940;2023-08-24T13:55:22;9.27;;;2.92;;
36597;SDS011;22607;49.550;11.940;2023-08-24T13:57:49;8.40;;;3.10;;
36597;SDS011;22607;49.550;11.940;2023-08-24T14:00:16;9.18;;;3.30;;
36597;SDS011;22607;49.550;11.940;2023-08-24T14:02:43;10.55;;;2.90;;
36597;SDS011;22607;49.550;11.940;2023-08-24T14:05:11;8.65;;;3.10;;
36597;SDS011;22607;49.550;11.940;2023-08-24T14:07:39;7.97;;;3.08;;
36597;SDS011;22607;49.550;11.940;2023-08-24T14:10:06;7.63;;;2.80;;
36597;SDS011;22607;49.550;11.940;2023-08-24T14:12:34;7.80;;;2.80;;
36597;SDS011;22607;49.550;11.940;2023-08-24T14:15:01;7.20;;;2.72;;
36597;SDS011;22607;49.550;11.940;2023-08-24T14:17:28;7.97;;;2.88;;
36597;SDS011;22607;49.550;11.940;2023-08-24T14:19:55;8.07;;;2.75;;
36597;SDS011;22607;49.550;11.940;2023-08-24T14:22:21;7.07;;;2.88;;
36597;SDS011;22607;49.550;11.940;2023-08-24T14:24:50;8.70;;;3.08;;
36597;SDS011;22607;49.550;11.940;2023-08-24T14:42:56;7.43;;;2.70;;
36597;SDS011;22607;49.550;11.940;2023-08-24T14:45:23;8.00;;;2.90;;
36597;SDS011;22607;49.550;11.940;2023-08-24T14:47:50;7.72;;;2.90;;
36597;SDS011;22607;49.550;11.940;2023-08-24T14:50:17;7.30;;;2.53;;
36597;SDS011;22607;49.550;11.940;2023-08-24T14:52:44;8.13;;;2.40;;
36597;SDS011;22607;49.550;11.940;2023-08-24T14:55:10;7.50;;;2.90;;
36597;SDS011;22607;49.550;11.940;2023-08-24T14:57:38;9.15;;;3.08;;
36597;SDS011;22607;49.550;11.940;2023-08-24T15:00:05;7.78;;;2.97;;
36597;SDS011;22607;49.550;11.940;2023-08-24T15:02:35;7.97;;;2.88;;
36597;SDS011;22607;49.550;11.940;2023-08-24T15:05:03;7.47;;;2.80;;
36597;SDS011;22607;49.550;11.940;2023-08-24T15:07:30;7.25;;;2.80;;
36597;SDS011;22607;49.550;11.940;2023-08-24T15:09:58;7.75;;;2.80;;
36597;SDS011;22607;49.550;11.940;2023-08-24T15:12:24;8.82;;;2.90;;